sensor_id;sensor_type;location;lat;lon;timestamp;P1;durP1;ratioP1;P2;durP2;ratioP2
22916;SDS011;11624;53.250;7.456;2022-08-30T00:02:28;10.40;;;4.20;;
22916;SDS011;11624;53.250;7.456;2022-08-30T00:04:56;14.80;;;5.07;;
22916;SDS011;11624;53.250;7.456;2022-08-30T00:07:27;11.98;;;4.65;;
22916;SDS011;11624;53.250;7.456;2022-08-30T00:09:55;10.90;;;4.07;;
22916;SDS011;11624;53.250;7.456;2022-08-30T00:12:23;12.38;;;4.05;;
22916;SDS011;11624;53.250;7.456;2022-08-30T00:14:51;10.80;;;4.40;;
22916;SDS011;11624;53.250;7.456;2022-08-30T00:17:19;10.68;;;4.07;;
22916;SDS011;11624;53.250;7.456;2022-08-30T00:19:49;9.55;;;4.05;;
22916;SDS011;11624;53.250;7.456;2022-08-30T00:22:17;11.93;;;4.10;;
22916;SDS011;11624;53.250;7.456;2022-08-30T00:24:45;10.60;;;4.45;;
22916;SDS011;11624;53.250;7.456;2022-08-30T00:27:15;14.35;;;3.90;;
22916;SDS011;11624;53.250;7.456;2022-08-30T00:29:43;9.50;;;3.55;;
22916;SDS011;11624;53.250;7.456;2022-08-30T00:32:11;9.82;;;3.40;;
22916;SDS011;11624;53.250;7.456;2022-08-30T00:34:39;12.23;;;3.97;;
22916;SDS011;11624;53.250;7.456;2022-08-30T00:37:08;10.98;;;3.50;;
22916;SDS011;11624;53.250;7.456;2022-08-30T00:39:36;7.95;;;3.28;;
22916;SDS011;11624;53.250;7.456;2022-08-30T00:42:04;11.95;;;3.85;;
22916;SDS011;11624;53.250;7.456;2022-08-30T00:44:33;9.43;;;3.25;;
22916;SDS011;11624;53.250;7.456;2022-08-30T00:47:02;10.13;;;4.00;;
22916;SDS011;11624;53.250;7.456;2022-08-30T00:49:30;8.63;;;3.17;;
22916;SDS011;11624;53.250;7.456;2022-08-30T00:51:59;9.93;;;3.17;;
22916;SDS011;11624;53.250;7.456;2022-08-30T00:54:31;9.85;;;3.20;;
22916;SDS011;11624;53.250;7.456;2022-08-30T00:57:02;8.85;;;3.38;;
22916;SDS011;11624;53.250;7.456;2022-08-30T00:59:31;6.00;;;2.83;;
22916;SDS011;11624;53.250;7.456;2022-08-30T01:01:59;8.88;;;3.10;;
22916;SDS011;11624;53.250;7.456;2022-08-30T01:04:29;10.48;;;3.33;;
22916;SDS011;11624;53.250;7.456;2022-08-30T01:06:59;7.00;;;3.08;;
22916;SDS011;11624;53.250;7.456;2022-08-30T01:09:27;7.88;;;2.97;;
22916;SDS011;11624;53.250;7.456;2022-08-30T01:11:57;6.53;;;2.80;;
22916;SDS011;11624;53.250;7.456;2022-08-30T01:14:25;8.23;;;3.05;;
22916;SDS011;11624;53.250;7.456;2022-08-30T01:16:55;7.47;;;2.90;;
22916;SDS011;11624;53.250;7.456;2022-08-30T01:19:26;8.10;;;2.85;;
22916;SDS011;11624;53.250;7.456;2022-08-30T01:22:03;9.05;;;2.78;;
22916;SDS011;11624;53.250;7.456;2022-08-30T01:24:38;9.27;;;2.85;;
22916;SDS011;11624;53.250;7.456;2022-08-30T01:27:06;7.28;;;2.70;;
22916;SDS011;11624;53.250;7.456;2022-08-30T01:29:34;8.77;;;2.88;;
22916;SDS011;11624;53.250;7.456;2022-08-30T01:32:04;6.53;;;2.72;;
22916;SDS011;11624;53.250;7.456;2022-08-30T01:34:32;9.00;;;2.63;;
22916;SDS011;11624;53.250;7.456;2022-08-30T01:37:00;8.02;;;2.33;;
22916;SDS011;11624;53.250;7.456;2022-08-30T01:39:28;6.47;;;2.50;;
22916;SDS011;11624;53.250;7.456;2022-08-30T01:41:59;6.35;;;2.55;;
22916;SDS011;11624;53.250;7.456;2022-08-30T01:44:28;7.43;;;2.50;;
22916;SDS011;11624;53.250;7.456;2022-08-30T01:46:56;10.60;;;3.03;;
22916;SDS011;11624;53.250;7.456;2022-08-30T01:49:24;9.27;;;2.90;;
22916;SDS011;11624;53.250;7.456;2022-08-30T01:51:53;6.18;;;2.50;;
22916;SDS011;11624;53.250;7.456;2022-08-30T01:54:27;11.32;;;3.42;;
22916;SDS011;11624;53.250;7.456;2022-08-30T01:57:04;7.93;;;2.88;;
22916;SDS011;11624;53.250;7.456;2022-08-30T01:59:33;10.88;;;3.47;;
22916;SDS011;11624;53.250;7.456;2022-08-30T02:02:01;10.82;;;3.17;;
22916;SDS011;11624;53.250;7.456;2022-08-30T02:04:30;6.72;;;2.92;;
22916;SDS011;11624;53.250;7.456;2022-08-30T02:06:58;9.80;;;3.60;;
22916;SDS011;11624;53.250;7.456;2022-08-30T02:09:26;10.13;;;3.33;;
22916;SDS011;11624;53.250;7.456;2022-08-30T02:11:55;9.30;;;3.38;;
22916;SDS011;11624;53.250;7.456;2022-08-30T02:14:24;9.80;;;3.55;;
22916;SDS011;11624;53.250;7.456;2022-08-30T02:16:52;12.15;;;3.75;;
22916;SDS011;11624;53.250;7.456;2022-08-30T02:19:21;10.23;;;3.78;;
22916;SDS011;11624;53.250;7.456;2022-08-30T02:21:49;11.55;;;3.67;;
22916;SDS011;11624;53.250;7.456;2022-08-30T02:24:18;11.50;;;3.75;;
22916;SDS011;11624;53.250;7.456;2022-08-30T02:26:46;10.35;;;3.28;;
22916;SDS011;11624;53.250;7.456;2022-08-30T02:29:14;7.88;;;3.50;;
22916;SDS011;11624;53.250;7.456;2022-08-30T02:31:43;8.93;;;3.28;;
22916;SDS011;11624;53.250;7.456;2022-08-30T02:34:12;10.75;;;3.75;;
22916;SDS011;11624;53.250;7.456;2022-08-30T02:36:40;9.10;;;3.03;;
22916;SDS011;11624;53.250;7.456;2022-08-30T02:39:10;10.23;;;3.42;;
22916;SDS011;11624;53.250;7.456;2022-08-30T02:41:39;9.25;;;3.45;;
22916;SDS011;11624;53.250;7.456;2022-08-30T02:44:08;8.20;;;3.10;;
22916;SDS011;11624;53.250;7.456;2022-08-30T02:46:38;8.00;;;3.55;;
22916;SDS011;11624;53.250;7.456;2022-08-30T02:49:08;11.07;;;3.60;;
22916;SDS011;11624;53.250;7.456;2022-08-30T02:51:56;11.35;;;3.40;;
22916;SDS011;11624;53.250;7.456;2022-08-30T02:54:24;7.50;;;3.15;;
22916;SDS011;11624;53.250;7.456;2022-08-30T02:56:53;9.50;;;3.17;;
22916;SDS011;11624;53.250;7.456;2022-08-30T02:59:22;8.30;;;3.17;;
22916;SDS011;11624;53.250;7.456;2022-08-30T03:01:50;9.13;;;3.25;;
22916;SDS011;11624;53.250;7.456;2022-08-30T03:04:20;8.07;;;2.85;;
22916;SDS011;11624;53.250;7.456;2022-08-30T03:06:52;9.25;;;2.92;;
22916;SDS011;11624;53.250;7.456;2022-08-30T03:09:20;11.93;;;3.35;;
22916;SDS011;11624;53.250;7.456;2022-08-30T03:11:49;8.88;;;3.55;;
22916;SDS011;11624;53.250;7.456;2022-08-30T03:14:17;9.45;;;3.38;;
22916;SDS011;11624;53.250;7.456;2022-08-30T03:16:45;9.88;;;3.20;;
22916;SDS011;11624;53.250;7.456;2022-08-30T03:19:13;9.30;;;3.67;;
22916;SDS011;11624;53.250;7.456;2022-08-30T03:21:43;10.13;;;3.35;;
22916;SDS011;11624;53.250;7.456;2022-08-30T03:24:11;8.23;;;3.20;;
22916;SDS011;11624;53.250;7.456;2022-08-30T03:26:40;8.38;;;3.30;;
22916;SDS011;11624;53.250;7.456;2022-08-30T03:29:11;10.50;;;3.33;;
22916;SDS011;11624;53.250;7.456;2022-08-30T03:31:41;8.45;;;3.28;;
22916;SDS011;11624;53.250;7.456;2022-08-30T03:34:18;9.02;;;3.15;;
22916;SDS011;11624;53.250;7.456;2022-08-30T03:36:48;10.23;;;3.95;;
22916;SDS011;11624;53.250;7.456;2022-08-30T03:39:18;10.40;;;3.78;;
22916;SDS011;11624;53.250;7.456;2022-08-30T03:41:47;9.23;;;3.30;;
22916;SDS011;11624;53.250;7.456;2022-08-30T03:44:17;10.48;;;3.50;;
22916;SDS011;11624;53.250;7.456;2022-08-30T03:46:45;9.70;;;3.63;;
22916;SDS011;11624;53.250;7.456;2022-08-30T03:49:14;9.70;;;3.70;;
22916;SDS011;11624;53.250;7.456;2022-08-30T03:51:42;10.57;;;3.78;;
22916;SDS011;11624;53.250;7.456;2022-08-30T03:54:11;10.13;;;4.07;;
22916;SDS011;11624;53.250;7.456;2022-08-30T03:56:39;16.65;;;4.72;;
22916;SDS011;11624;53.250;7.456;2022-08-30T03:59:08;12.40;;;5.03;;
22916;SDS011;11624;53.250;7.456;2022-08-30T04:01:36;15.93;;;5.93;;
22916;SDS011;11624;53.250;7.456;2022-08-30T04:04:04;14.07;;;5.80;;
22916;SDS011;11624;53.250;7.456;2022-08-30T04:06:33;12.32;;;5.43;;
22916;SDS011;11624;53.250;7.456;2022-08-30T04:09:01;15.05;;;5.35;;
22916;SDS011;11624;53.250;7.456;2022-08-30T04:11:31;12.32;;;5.07;;
22916;SDS011;11624;53.250;7.456;2022-08-30T04:14:00;15.68;;;5.20;;
22916;SDS011;11624;53.250;7.456;2022-08-30T04:16:28;14.35;;;6.05;;
22916;SDS011;11624;53.250;7.456;2022-08-30T04:18:56;17.00;;;6.03;;
22916;SDS011;11624;53.250;7.456;2022-08-30T04:21:24;12.27;;;5.97;;
22916;SDS011;11624;53.250;7.456;2022-08-30T04:23:52;13.50;;;5.40;;
22916;SDS011;11624;53.250;7.456;2022-08-30T04:26:21;14.43;;;6.43;;
22916;SDS011;11624;53.250;7.456;2022-08-30T04:28:56;13.95;;;6.47;;
22916;SDS011;11624;53.250;7.456;2022-08-30T04:31:24;14.38;;;6.63;;
22916;SDS011;11624;53.250;7.456;2022-08-30T04:33:53;13.45;;;6.07;;
22916;SDS011;11624;53.250;7.456;2022-08-30T04:36:21;16.88;;;6.28;;
22916;SDS011;11624;53.250;7.456;2022-08-30T04:38:49;14.43;;;5.82;;
22916;SDS011;11624;53.250;7.456;2022-08-30T04:41:18;12.65;;;5.63;;
22916;SDS011;11624;53.250;7.456;2022-08-30T04:43:46;13.90;;;5.43;;
22916;SDS011;11624;53.250;7.456;2022-08-30T04:46:17;12.90;;;5.80;;
22916;SDS011;11624;53.250;7.456;2022-08-30T04:48:46;14.25;;;5.38;;
22916;SDS011;11624;53.250;7.456;2022-08-30T04:51:15;10.98;;;4.88;;
22916;SDS011;11624;53.250;7.456;2022-08-30T04:53:44;12.95;;;5.32;;
22916;SDS011;11624;53.250;7.456;2022-08-30T04:56:13;14.52;;;4.68;;
22916;SDS011;11624;53.250;7.456;2022-08-30T04:58:44;10.80;;;4.80;;
22916;SDS011;11624;53.250;7.456;2022-08-30T05:01:14;11.57;;;4.85;;
22916;SDS011;11624;53.250;7.456;2022-08-30T05:03:46;13.13;;;4.80;;
22916;SDS011;11624;53.250;7.456;2022-08-30T05:06:15;14.45;;;4.93;;
22916;SDS011;11624;53.250;7.456;2022-08-30T05:08:44;14.50;;;5.20;;
22916;SDS011;11624;53.250;7.456;2022-08-30T05:11:13;12.45;;;5.20;;
22916;SDS011;11624;53.250;7.456;2022-08-30T05:13:42;12.65;;;5.07;;
22916;SDS011;11624;53.250;7.456;2022-08-30T05:16:11;12.40;;;5.22;;
22916;SDS011;11624;53.250;7.456;2022-08-30T05:18:43;12.73;;;5.13;;
22916;SDS011;11624;53.250;7.456;2022-08-30T05:21:14;16.27;;;5.30;;
22916;SDS011;11624;53.250;7.456;2022-08-30T05:23:44;14.23;;;4.70;;
22916;SDS011;11624;53.250;7.456;2022-08-30T05:26:13;10.88;;;4.30;;
22916;SDS011;11624;53.250;7.456;2022-08-30T05:28:43;11.18;;;4.40;;
22916;SDS011;11624;53.250;7.456;2022-08-30T05:31:15;11.95;;;4.82;;
22916;SDS011;11624;53.250;7.456;2022-08-30T05:33:45;13.63;;;4.53;;
22916;SDS011;11624;53.250;7.456;2022-08-30T05:36:16;11.13;;;4.40;;
22916;SDS011;11624;53.250;7.456;2022-08-30T05:38:45;13.80;;;4.30;;
22916;SDS011;11624;53.250;7.456;2022-08-30T05:41:14;11.68;;;4.32;;
22916;SDS011;11624;53.250;7.456;2022-08-30T05:43:42;10.25;;;4.28;;
22916;SDS011;11624;53.250;7.456;2022-08-30T05:46:11;12.73;;;4.30;;
22916;SDS011;11624;53.250;7.456;2022-08-30T05:48:44;10.80;;;3.90;;
22916;SDS011;11624;53.250;7.456;2022-08-30T05:51:13;11.27;;;4.20;;
22916;SDS011;11624;53.250;7.456;2022-08-30T05:53:44;9.10;;;3.70;;
22916;SDS011;11624;53.250;7.456;2022-08-30T05:56:14;12.95;;;4.28;;
22916;SDS011;11624;53.250;7.456;2022-08-30T05:58:44;11.13;;;4.10;;
22916;SDS011;11624;53.250;7.456;2022-08-30T06:01:18;11.75;;;3.75;;
22916;SDS011;11624;53.250;7.456;2022-08-30T06:03:52;11.02;;;3.55;;
22916;SDS011;11624;53.250;7.456;2022-08-30T06:06:27;7.80;;;3.35;;
22916;SDS011;11624;53.250;7.456;2022-08-30T06:08:55;10.32;;;4.00;;
22916;SDS011;11624;53.250;7.456;2022-08-30T06:11:24;9.40;;;3.80;;
22916;SDS011;11624;53.250;7.456;2022-08-30T06:13:53;12.05;;;3.97;;
22916;SDS011;11624;53.250;7.456;2022-08-30T06:16:23;10.95;;;4.28;;
22916;SDS011;11624;53.250;7.456;2022-08-30T06:18:53;11.85;;;4.53;;
22916;SDS011;11624;53.250;7.456;2022-08-30T06:21:24;10.93;;;4.03;;
22916;SDS011;11624;53.250;7.456;2022-08-30T06:23:55;11.55;;;4.05;;
22916;SDS011;11624;53.250;7.456;2022-08-30T06:26:24;12.10;;;4.30;;
22916;SDS011;11624;53.250;7.456;2022-08-30T06:28:53;12.82;;;4.30;;
22916;SDS011;11624;53.250;7.456;2022-08-30T06:31:22;10.52;;;3.45;;
22916;SDS011;11624;53.250;7.456;2022-08-30T06:33:53;11.82;;;3.78;;
22916;SDS011;11624;53.250;7.456;2022-08-30T06:36:21;12.15;;;3.78;;
22916;SDS011;11624;53.250;7.456;2022-08-30T06:38:51;10.77;;;3.72;;
22916;SDS011;11624;53.250;7.456;2022-08-30T06:41:22;6.68;;;3.00;;
22916;SDS011;11624;53.250;7.456;2022-08-30T06:43:52;8.23;;;3.03;;
22916;SDS011;11624;53.250;7.456;2022-08-30T06:46:22;9.02;;;3.30;;
22916;SDS011;11624;53.250;7.456;2022-08-30T06:48:51;12.73;;;3.15;;
22916;SDS011;11624;53.250;7.456;2022-08-30T06:51:22;9.07;;;3.00;;
22916;SDS011;11624;53.250;7.456;2022-08-30T06:53:52;12.07;;;2.97;;
22916;SDS011;11624;53.250;7.456;2022-08-30T06:56:23;10.25;;;2.75;;
22916;SDS011;11624;53.250;7.456;2022-08-30T06:58:53;11.07;;;2.97;;
22916;SDS011;11624;53.250;7.456;2022-08-30T07:01:22;8.60;;;3.05;;
22916;SDS011;11624;53.250;7.456;2022-08-30T07:03:52;10.20;;;3.35;;
22916;SDS011;11624;53.250;7.456;2022-08-30T07:06:21;8.20;;;2.70;;
22916;SDS011;11624;53.250;7.456;2022-08-30T07:08:50;11.52;;;2.63;;
22916;SDS011;11624;53.250;7.456;2022-08-30T07:11:26;7.75;;;2.38;;
22916;SDS011;11624;53.250;7.456;2022-08-30T07:13:57;6.40;;;2.20;;
22916;SDS011;11624;53.250;7.456;2022-08-30T07:16:25;8.30;;;2.28;;
22916;SDS011;11624;53.250;7.456;2022-08-30T07:18:54;6.97;;;2.35;;
22916;SDS011;11624;53.250;7.456;2022-08-30T07:21:25;15.63;;;3.15;;
22916;SDS011;11624;53.250;7.456;2022-08-30T07:23:54;10.73;;;2.70;;
22916;SDS011;11624;53.250;7.456;2022-08-30T07:26:24;7.80;;;2.17;;
22916;SDS011;11624;53.250;7.456;2022-08-30T07:28:56;7.20;;;2.08;;
22916;SDS011;11624;53.250;7.456;2022-08-30T07:31:24;4.72;;;1.90;;
22916;SDS011;11624;53.250;7.456;2022-08-30T07:33:52;7.63;;;2.08;;
22916;SDS011;11624;53.250;7.456;2022-08-30T07:36:21;4.82;;;1.40;;
22916;SDS011;11624;53.250;7.456;2022-08-30T07:38:50;6.60;;;1.92;;
22916;SDS011;11624;53.250;7.456;2022-08-30T07:41:21;4.80;;;1.73;;
22916;SDS011;11624;53.250;7.456;2022-08-30T07:43:52;4.47;;;1.60;;
22916;SDS011;11624;53.250;7.456;2022-08-30T07:46:21;6.10;;;1.73;;
22916;SDS011;11624;53.250;7.456;2022-08-30T07:48:50;4.07;;;1.52;;
22916;SDS011;11624;53.250;7.456;2022-08-30T07:51:20;6.90;;;1.90;;
22916;SDS011;11624;53.250;7.456;2022-08-30T07:53:49;5.28;;;1.80;;
22916;SDS011;11624;53.250;7.456;2022-08-30T07:56:18;6.22;;;1.80;;
22916;SDS011;11624;53.250;7.456;2022-08-30T07:58:46;5.50;;;1.50;;
22916;SDS011;11624;53.250;7.456;2022-08-30T08:01:16;6.72;;;1.73;;
22916;SDS011;11624;53.250;7.456;2022-08-30T08:03:46;5.88;;;1.50;;
22916;SDS011;11624;53.250;7.456;2022-08-30T08:06:16;3.22;;;1.20;;
22916;SDS011;11624;53.250;7.456;2022-08-30T08:08:45;4.40;;;1.20;;
22916;SDS011;11624;53.250;7.456;2022-08-30T08:11:14;5.40;;;1.50;;
22916;SDS011;11624;53.250;7.456;2022-08-30T08:13:44;7.07;;;1.35;;
22916;SDS011;11624;53.250;7.456;2022-08-30T08:16:21;3.35;;;1.30;;
22916;SDS011;11624;53.250;7.456;2022-08-30T08:18:51;7.55;;;1.60;;
22916;SDS011;11624;53.250;7.456;2022-08-30T08:21:20;4.50;;;1.55;;
22916;SDS011;11624;53.250;7.456;2022-08-30T08:23:50;3.47;;;1.50;;
22916;SDS011;11624;53.250;7.456;2022-08-30T08:26:20;4.28;;;1.50;;
22916;SDS011;11624;53.250;7.456;2022-08-30T08:28:49;4.85;;;1.60;;
22916;SDS011;11624;53.250;7.456;2022-08-30T08:31:18;4.18;;;1.50;;
22916;SDS011;11624;53.250;7.456;2022-08-30T08:33:57;5.68;;;1.70;;
22916;SDS011;11624;53.250;7.456;2022-08-30T08:36:26;3.88;;;1.50;;
22916;SDS011;11624;53.250;7.456;2022-08-30T08:38:56;4.57;;;1.50;;
22916;SDS011;11624;53.250;7.456;2022-08-30T08:41:30;6.90;;;1.90;;
22916;SDS011;11624;53.250;7.456;2022-08-30T08:44:05;4.80;;;1.50;;
22916;SDS011;11624;53.250;7.456;2022-08-30T08:46:43;4.93;;;1.60;;
22916;SDS011;11624;53.250;7.456;2022-08-30T08:49:17;4.50;;;1.50;;
22916;SDS011;11624;53.250;7.456;2022-08-30T08:51:46;5.28;;;1.35;;
22916;SDS011;11624;53.250;7.456;2022-08-30T08:54:33;4.63;;;1.50;;
22916;SDS011;11624;53.250;7.456;2022-08-30T08:57:07;12.00;;;1.60;;
22916;SDS011;11624;53.250;7.456;2022-08-30T08:59:41;3.38;;;1.40;;
22916;SDS011;11624;53.250;7.456;2022-08-30T09:02:22;6.28;;;1.60;;
22916;SDS011;11624;53.250;7.456;2022-08-30T09:04:53;3.00;;;1.10;;
22916;SDS011;11624;53.250;7.456;2022-08-30T09:07:25;5.28;;;1.40;;
22916;SDS011;11624;53.250;7.456;2022-08-30T09:09:56;7.43;;;1.55;;
22916;SDS011;11624;53.250;7.456;2022-08-30T09:12:26;4.30;;;1.55;;
22916;SDS011;11624;53.250;7.456;2022-08-30T09:14:57;3.25;;;1.27;;
22916;SDS011;11624;53.250;7.456;2022-08-30T09:17:30;3.25;;;1.40;;
22916;SDS011;11624;53.250;7.456;2022-08-30T09:20:22;6.35;;;1.23;;
22916;SDS011;11624;53.250;7.456;2022-08-30T09:22:52;4.47;;;1.50;;
22916;SDS011;11624;53.250;7.456;2022-08-30T09:25:23;4.38;;;1.58;;
22916;SDS011;11624;53.250;7.456;2022-08-30T09:27:53;3.80;;;1.40;;
22916;SDS011;11624;53.250;7.456;2022-08-30T09:30:36;8.32;;;1.90;;
22916;SDS011;11624;53.250;7.456;2022-08-30T09:33:06;5.38;;;1.42;;
22916;SDS011;11624;53.250;7.456;2022-08-30T09:35:46;6.57;;;1.58;;
22916;SDS011;11624;53.250;7.456;2022-08-30T09:38:20;4.28;;;1.50;;
22916;SDS011;11624;53.250;7.456;2022-08-30T09:40:50;5.63;;;1.52;;
22916;SDS011;11624;53.250;7.456;2022-08-30T09:43:20;4.18;;;1.63;;
22916;SDS011;11624;53.250;7.456;2022-08-30T09:46:04;3.78;;;1.30;;
22916;SDS011;11624;53.250;7.456;2022-08-30T09:48:37;1.95;;;1.20;;
22916;SDS011;11624;53.250;7.456;2022-08-30T09:51:10;3.55;;;1.25;;
22916;SDS011;11624;53.250;7.456;2022-08-30T09:54:07;5.78;;;1.50;;
22916;SDS011;11624;53.250;7.456;2022-08-30T09:57:03;4.93;;;1.52;;
22916;SDS011;11624;53.250;7.456;2022-08-30T09:59:40;3.55;;;1.38;;
22916;SDS011;11624;53.250;7.456;2022-08-30T10:02:25;3.30;;;1.38;;
22916;SDS011;11624;53.250;7.456;2022-08-30T10:05:21;6.22;;;1.55;;
22916;SDS011;11624;53.250;7.456;2022-08-30T10:07:56;4.00;;;1.40;;
22916;SDS011;11624;53.250;7.456;2022-08-30T10:10:32;4.65;;;1.42;;
22916;SDS011;11624;53.250;7.456;2022-08-30T10:13:17;4.05;;;1.40;;
22916;SDS011;11624;53.250;7.456;2022-08-30T10:16:04;3.45;;;1.30;;
22916;SDS011;11624;53.250;7.456;2022-08-30T10:18:47;5.35;;;1.60;;
22916;SDS011;11624;53.250;7.456;2022-08-30T10:21:25;3.75;;;1.50;;
22916;SDS011;11624;53.250;7.456;2022-08-30T10:23:57;5.07;;;1.60;;
22916;SDS011;11624;53.250;7.456;2022-08-30T10:26:30;3.88;;;1.58;;
22916;SDS011;11624;53.250;7.456;2022-08-30T10:29:02;2.88;;;1.27;;
22916;SDS011;11624;53.250;7.456;2022-08-30T10:31:35;3.50;;;1.30;;
22916;SDS011;11624;53.250;7.456;2022-08-30T10:34:09;2.85;;;1.30;;
22916;SDS011;11624;53.250;7.456;2022-08-30T10:36:43;3.97;;;1.42;;
22916;SDS011;11624;53.250;7.456;2022-08-30T10:39:17;7.78;;;1.70;;
22916;SDS011;11624;53.250;7.456;2022-08-30T10:41:51;4.72;;;1.40;;
22916;SDS011;11624;53.250;7.456;2022-08-30T10:44:26;5.45;;;1.52;;
22916;SDS011;11624;53.250;7.456;2022-08-30T10:46:58;3.47;;;1.50;;
22916;SDS011;11624;53.250;7.456;2022-08-30T10:49:34;3.38;;;1.15;;
22916;SDS011;11624;53.250;7.456;2022-08-30T10:52:12;3.58;;;1.50;;
22916;SDS011;11624;53.250;7.456;2022-08-30T10:54:52;5.15;;;1.40;;
22916;SDS011;11624;53.250;7.456;2022-08-30T10:57:24;3.95;;;1.45;;
22916;SDS011;11624;53.250;7.456;2022-08-30T10:59:53;2.33;;;1.10;;
22916;SDS011;11624;53.250;7.456;2022-08-30T11:02:50;4.47;;;1.40;;
22916;SDS011;11624;53.250;7.456;2022-08-30T11:05:44;6.18;;;1.50;;
22916;SDS011;11624;53.250;7.456;2022-08-30T11:08:28;6.75;;;1.67;;
22916;SDS011;11624;53.250;7.456;2022-08-30T11:11:14;4.47;;;1.40;;
22916;SDS011;11624;53.250;7.456;2022-08-30T11:13:52;7.10;;;1.58;;
22916;SDS011;11624;53.250;7.456;2022-08-30T11:16:42;3.65;;;1.38;;
22916;SDS011;11624;53.250;7.456;2022-08-30T11:19:15;3.58;;;1.35;;
22916;SDS011;11624;53.250;7.456;2022-08-30T11:21:47;3.28;;;1.30;;
22916;SDS011;11624;53.250;7.456;2022-08-30T11:24:20;3.97;;;1.30;;
22916;SDS011;11624;53.250;7.456;2022-08-30T11:26:51;4.90;;;1.60;;
22916;SDS011;11624;53.250;7.456;2022-08-30T11:29:32;7.50;;;2.33;;
22916;SDS011;11624;53.250;7.456;2022-08-30T11:32:55;3.90;;;1.48;;
22916;SDS011;11624;53.250;7.456;2022-08-30T11:35:35;3.97;;;1.40;;
22916;SDS011;11624;53.250;7.456;2022-08-30T11:38:16;3.83;;;1.73;;
22916;SDS011;11624;53.250;7.456;2022-08-30T11:40:56;2.40;;;1.30;;
22916;SDS011;11624;53.250;7.456;2022-08-30T11:43:48;4.43;;;1.40;;
22916;SDS011;11624;53.250;7.456;2022-08-30T11:46:33;6.05;;;1.30;;
22916;SDS011;11624;53.250;7.456;2022-08-30T11:49:05;3.83;;;1.30;;
22916;SDS011;11624;53.250;7.456;2022-08-30T11:52:10;4.22;;;1.23;;
22916;SDS011;11624;53.250;7.456;2022-08-30T11:54:59;6.28;;;1.60;;
22916;SDS011;11624;53.250;7.456;2022-08-30T11:57:47;6.32;;;1.45;;
22916;SDS011;11624;53.250;7.456;2022-08-30T12:00:27;4.40;;;1.55;;
22916;SDS011;11624;53.250;7.456;2022-08-30T12:03:01;1.83;;;1.10;;
22916;SDS011;11624;53.250;7.456;2022-08-30T12:08:43;4.40;;;1.40;;
22916;SDS011;11624;53.250;7.456;2022-08-30T12:17:26;6.32;;;1.45;;
22916;SDS011;11624;53.250;7.456;2022-08-30T12:20:18;7.00;;;1.70;;
22916;SDS011;11624;53.250;7.456;2022-08-30T12:22:53;4.22;;;1.60;;
22916;SDS011;11624;53.250;7.456;2022-08-30T12:25:27;4.32;;;1.33;;
22916;SDS011;11624;53.250;7.456;2022-08-30T12:30:49;5.63;;;1.50;;
22916;SDS011;11624;53.250;7.456;2022-08-30T12:33:23;3.40;;;1.27;;
22916;SDS011;11624;53.250;7.456;2022-08-30T12:35:55;4.35;;;1.23;;
22916;SDS011;11624;53.250;7.456;2022-08-30T12:38:25;4.55;;;1.50;;
22916;SDS011;11624;53.250;7.456;2022-08-30T12:40:56;5.22;;;1.58;;
22916;SDS011;11624;53.250;7.456;2022-08-30T12:43:28;4.80;;;1.45;;
22916;SDS011;11624;53.250;7.456;2022-08-30T12:46:08;3.03;;;1.48;;
22916;SDS011;11624;53.250;7.456;2022-08-30T12:48:41;6.07;;;1.38;;
22916;SDS011;11624;53.250;7.456;2022-08-30T12:51:23;2.67;;;1.50;;
22916;SDS011;11624;53.250;7.456;2022-08-30T12:53:58;4.60;;;1.58;;
22916;SDS011;11624;53.250;7.456;2022-08-30T12:59:38;1.80;;;1.17;;
22916;SDS011;11624;53.250;7.456;2022-08-30T13:02:25;5.15;;;1.42;;
22916;SDS011;11624;53.250;7.456;2022-08-30T13:04:55;3.45;;;1.40;;
22916;SDS011;11624;53.250;7.456;2022-08-30T13:07:29;3.63;;;1.70;;
22916;SDS011;11624;53.250;7.456;2022-08-30T13:10:14;3.50;;;1.50;;
22916;SDS011;11624;53.250;7.456;2022-08-30T13:12:58;2.97;;;1.45;;
22916;SDS011;11624;53.250;7.456;2022-08-30T13:15:29;3.38;;;1.50;;
22916;SDS011;11624;53.250;7.456;2022-08-30T13:18:17;4.32;;;1.50;;
22916;SDS011;11624;53.250;7.456;2022-08-30T13:23:35;4.28;;;1.38;;
22916;SDS011;11624;53.250;7.456;2022-08-30T13:26:05;3.42;;;1.50;;
22916;SDS011;11624;53.250;7.456;2022-08-30T13:28:46;4.00;;;1.30;;
22916;SDS011;11624;53.250;7.456;2022-08-30T13:31:16;3.88;;;1.20;;
22916;SDS011;11624;53.250;7.456;2022-08-30T13:33:46;2.35;;;1.45;;
22916;SDS011;11624;53.250;7.456;2022-08-30T13:36:18;4.25;;;1.40;;
22916;SDS011;11624;53.250;7.456;2022-08-30T13:38:50;3.55;;;1.30;;
22916;SDS011;11624;53.250;7.456;2022-08-30T13:41:18;3.90;;;1.35;;
22916;SDS011;11624;53.250;7.456;2022-08-30T13:43:46;3.67;;;1.27;;
22916;SDS011;11624;53.250;7.456;2022-08-30T13:46:35;2.90;;;1.35;;
22916;SDS011;11624;53.250;7.456;2022-08-30T13:49:09;4.28;;;1.30;;
22916;SDS011;11624;53.250;7.456;2022-08-30T13:52:04;2.95;;;1.20;;
22916;SDS011;11624;53.250;7.456;2022-08-30T13:54:50;2.63;;;1.20;;
22916;SDS011;11624;53.250;7.456;2022-08-30T13:57:20;6.18;;;1.60;;
22916;SDS011;11624;53.250;7.456;2022-08-30T14:00:11;6.72;;;1.40;;
22916;SDS011;11624;53.250;7.456;2022-08-30T14:02:43;4.45;;;1.55;;
22916;SDS011;11624;53.250;7.456;2022-08-30T14:05:22;3.42;;;1.40;;
22916;SDS011;11624;53.250;7.456;2022-08-30T14:08:12;4.18;;;1.50;;
22916;SDS011;11624;53.250;7.456;2022-08-30T14:11:03;7.60;;;2.10;;
22916;SDS011;11624;53.250;7.456;2022-08-30T14:13:32;4.63;;;1.52;;
22916;SDS011;11624;53.250;7.456;2022-08-30T14:16:01;4.90;;;1.38;;
22916;SDS011;11624;53.250;7.456;2022-08-30T14:18:52;5.82;;;1.40;;
22916;SDS011;11624;53.250;7.456;2022-08-30T14:21:22;4.90;;;1.27;;
22916;SDS011;11624;53.250;7.456;2022-08-30T14:23:51;6.53;;;1.77;;
22916;SDS011;11624;53.250;7.456;2022-08-30T14:26:20;1.42;;;1.10;;
22916;SDS011;11624;53.250;7.456;2022-08-30T14:28:51;4.63;;;1.38;;
22916;SDS011;11624;53.250;7.456;2022-08-30T14:31:19;3.72;;;1.20;;
22916;SDS011;11624;53.250;7.456;2022-08-30T14:33:48;2.63;;;1.27;;
22916;SDS011;11624;53.250;7.456;2022-08-30T14:36:16;2.72;;;1.30;;
22916;SDS011;11624;53.250;7.456;2022-08-30T14:38:47;1.85;;;1.10;;
22916;SDS011;11624;53.250;7.456;2022-08-30T14:41:16;2.67;;;1.15;;
22916;SDS011;11624;53.250;7.456;2022-08-30T14:43:44;3.80;;;1.48;;
22916;SDS011;11624;53.250;7.456;2022-08-30T14:46:12;3.03;;;1.35;;
22916;SDS011;11624;53.250;7.456;2022-08-30T14:48:41;2.53;;;1.17;;
22916;SDS011;11624;53.250;7.456;2022-08-30T14:51:12;4.45;;;1.40;;
22916;SDS011;11624;53.250;7.456;2022-08-30T14:53:42;4.22;;;1.58;;
22916;SDS011;11624;53.250;7.456;2022-08-30T14:56:13;3.83;;;1.25;;
22916;SDS011;11624;53.250;7.456;2022-08-30T14:58:46;4.60;;;1.55;;
22916;SDS011;11624;53.250;7.456;2022-08-30T15:01:14;1.23;;;1.00;;
22916;SDS011;11624;53.250;7.456;2022-08-30T15:03:43;3.10;;;1.13;;
22916;SDS011;11624;53.250;7.456;2022-08-30T15:06:12;3.30;;;1.60;;
22916;SDS011;11624;53.250;7.456;2022-08-30T15:08:41;2.65;;;1.10;;
22916;SDS011;11624;53.250;7.456;2022-08-30T15:11:15;2.60;;;1.30;;
22916;SDS011;11624;53.250;7.456;2022-08-30T15:13:45;3.80;;;1.40;;
22916;SDS011;11624;53.250;7.456;2022-08-30T15:16:14;3.30;;;1.15;;
22916;SDS011;11624;53.250;7.456;2022-08-30T15:18:44;4.03;;;1.52;;
22916;SDS011;11624;53.250;7.456;2022-08-30T15:21:13;6.25;;;1.50;;
22916;SDS011;11624;53.250;7.456;2022-08-30T15:23:48;7.07;;;1.27;;
22916;SDS011;11624;53.250;7.456;2022-08-30T15:26:19;5.43;;;1.83;;
22916;SDS011;11624;53.250;7.456;2022-08-30T15:28:47;11.20;;;1.70;;
22916;SDS011;11624;53.250;7.456;2022-08-30T15:31:16;3.85;;;1.60;;
22916;SDS011;11624;53.250;7.456;2022-08-30T15:33:45;4.88;;;1.25;;